CheckWX is a tool to help pilots better visualize weather data.  It is not intended as a substitute for an official pre-flight weather briefing.

03:31:11 UTC

M04 METAR
Covington Municipal Airport
Covington, Tennessee, USA
Current

16 mins ago

KM04 220315Z AUTO 00000KT 10SM CLR 26/24 A2995 RMK A01
Observed
Jul-22 @ 03:15 UTC
Visibility
10 SM
Flight Rules
VFR
Cloud Levels
  • Clear skies
Temperature
26°C / 79°F
Dewpoint
24°C / 75°F
Humidity
89%
Altimeter
29.95" Hg
Pressure
1014.22 hPa
Previous

36 mins ago

KM04 220255Z AUTO 19004KT 10SM CLR 26/24 A2995 RMK A01
Observed
Jul-22 @ 02:55 UTC
Wind
  • 190° at 4 KTS
Visibility
10 SM
Flight Rules
VFR
Cloud Levels
  • Clear skies
Temperature
26°C / 79°F
Dewpoint
24°C / 75°F
Humidity
89%
Altimeter
29.95" Hg
Pressure
1014.22 hPa
Previous

56 mins ago

KM04 220235Z AUTO 19004KT 10SM CLR 26/24 A2994 RMK A01
Observed
Jul-22 @ 02:35 UTC
Wind
  • 190° at 4 KTS
Visibility
10 SM
Flight Rules
VFR
Cloud Levels
  • Clear skies
Temperature
26°C / 79°F
Dewpoint
24°C / 75°F
Humidity
89%
Altimeter
29.94" Hg
Pressure
1013.92 hPa